Detalii statie SCHWAB AGRO ARDUD [00001CF5]

Toti senzorii

Date Temperatura solului [C]Precipitatii [mm]Voltaj baterie [mV]Leaf Wetness [Min]HC Air temperature [C]HC Relative humidity [%]Punctul de roua [C]
medieminmaxsumaultimatimpmedieminmaxmediemediemin
2018-06-20 10:00:00 0 6816 27.93 27.33 28.93 100 27.8 27.3
2018-06-20 11:00:00 0 6834 30.1 28.59 31.14 98.89 29.7 28.5
2018-06-20 12:00:00 0 6844 30.75 29.88 31.67 99.07 30.5 29.5
2018-06-20 13:00:00 0 6854 31.9 30.43 32.88 99.18 31.6 30.4
2018-06-20 14:00:00 0 6844 33.16 31.36 34.55 96.07 32.3 31.1
2018-06-20 15:00:00 0 6864 33.16 32.67 33.96 93.01 31.7 30.5
2018-06-20 16:00:00 0 6864 32.99 32.13 33.61 96.19 32.1 31.2
2018-06-20 17:00:00 0 6864 31.65 30.6 32.73 98.29 31.2 30.4
2018-06-20 18:00:00 0 6854 28.92 28.22 30.29 100 28.8 28.2
2018-06-20 19:00:00 0 6844 28.21 27.39 28.92 100 28.1 27.3
2018-06-20 20:00:00 0 6834 25.94 24.69 27.2 100 25.9 24.6
2018-06-20 21:00:00 0 6834 23.79 22.97 24.7 100 23.7 22.9
2018-06-20 22:00:00 0 6834 22.49 22.26 22.92 100 22.4 22.2
2018-06-20 23:00:00 0 6834 21.2 20.45 22.12 100 21.1 20.4
2018-06-21 00:00:00 0 6834 19.9 19.44 20.28 100 19.8 19.4
2018-06-21 01:00:00 0 6826 19.04 18.56 19.38 100 19 18.5
2018-06-21 02:00:00 0 6816 18.21 17.94 18.53 100 18.1 17.9
2018-06-21 03:00:00 0 6826 17.66 17.38 17.88 100 17.6 17.3
2018-06-21 04:00:00 0 6816 17.2 16.94 17.49 100 17.1 16.9
2018-06-21 05:00:00 0 6826 16.95 16.72 17.19 100 16.9 16.7
2018-06-21 06:00:00 0 6806 18.22 17.3 19.03 100 18.1 17.3
2018-06-21 07:00:00 0 6806 21.13 19.12 23.15 100 21 19.1
2018-06-21 08:00:00 0 6806 26.11 23.44 28.37 100 26 23.4
2018-06-21 09:00:00 0 6816 29.16 27.92 30.25 100 29.1 27.9
2018-06-21 10:00:00 0 6816 30.9 29.49 31.99 99.81 30.8 29.4
2018-06-21 11:00:00 0 6834 32.14 31.29 33.02 96.04 31.3 29.9
2018-06-21 12:00:00 0 6844 31.42 30.11 32.87 93.5 30 28.7
2018-06-21 13:00:00 0 6854 32.73 31.45 34.07 91.95 31 30
2018-06-21 14:00:00 0 6854 31.88 30.6 33.47 90.93 30 28.9
2018-06-21 15:00:00 0 6864 28.36 26.82 30.4 97.66 27.8 26.8
2018-06-21 16:00:00 0 6844 29 28.01 29.84 99.31 28.7 27.8
2018-06-21 17:00:00 0 6844 27.56 26.66 28.38 100 27.5 26.6
2018-06-21 18:00:00 0 6834 26.2 25.7 26.52 100 26.1 25.7
2018-06-21 19:00:00 0 6826 25.22 24.76 25.81 100 25.1 24.7
2018-06-21 20:00:00 0 6826 23.98 23.34 24.62 100 23.9 23.3
2018-06-21 21:00:00 0 6816 22.57 22.15 23.14 100 22.5 22.1
2018-06-21 22:00:00 0 6816 22.07 21.57 22.51 100 22 21.5
2018-06-21 23:00:00 0 6816 21.57 20.81 22.13 100 21.5 20.8
2018-06-22 00:00:00 0 6816 20.4 20 20.84 100 20.3 20
2018-06-22 01:00:00 0 6816 19.82 19.21 20.36 100 19.7 19.2
2018-06-22 02:00:00 0 6806 19.06 18.86 19.28 100 19 18.8
2018-06-22 03:00:00 0 6806 19.44 19.26 19.85 100 19.4 19.2
2018-06-22 04:00:00 0 6816 20.15 19.97 20.29 100 20.1 19.9
2018-06-22 05:00:00 0 6816 20.18 20.06 20.3 100 20.1 20
2018-06-22 06:00:00 8 6806 18.56 16.61 20.49 100 18.5 16.6
2018-06-22 07:00:00 2.2 6806 16.62 16.25 16.85 100 16.5 16.2
2018-06-22 08:00:00 5 6796 15.84 15.56 16.31 100 15.8 15.5